Time;durP1;ratioP1;P1;durP2;ratioP2;P2;SDS_P1;SDS_P2;PMS_P1;PMS_P2;Temp;Humidity;BMP_temperature;BMP_pressure;BME280_temperature;BME280_humidity;BME280_pressure;Samples;Min_cycle;Max_cycle;Signal;HPM_P1;HPM_P2
2022/01/09 00:00:31;;;;;;;15.05;9.80;;;;;;;4.98;100.00;98742.28;5308118;28;20070;-84
2022/01/09 00:03:03;;;;;;;17.40;12.02;;;;;;;4.99;100.00;98756.31;5294198;28;20025;-85
2022/01/09 00:05:34;;;;;;;20.67;13.48;;;;;;;5.06;100.00;98760.81;5338080;27;20349;-85
2022/01/09 00:08:06;;;;;;;19.50;13.85;;;;;;;5.16;100.00;98771.28;5346558;27;20043;-85
2022/01/09 00:10:37;;;;;;;17.52;12.55;;;;;;;5.13;100.00;98782.16;5345839;27;20020;-85
2022/01/09 00:13:09;;;;;;;9.55;8.27;;;;;;;5.05;100.00;98795.31;5342343;27;20020;-85
2022/01/09 00:15:40;;;;;;;8.45;5.18;;;;;;;4.93;100.00;98806.16;5345676;27;20105;-85
2022/01/09 00:18:11;;;;;;;7.00;6.22;;;;;;;4.90;100.00;98832.06;5340393;27;20035;-85
2022/01/09 00:20:42;;;;;;;7.95;4.93;;;;;;;4.88;100.00;98842.78;5342689;27;20016;-85
2022/01/09 00:23:14;;;;;;;8.40;5.57;;;;;;;4.76;100.00;98846.66;5347678;27;20026;-86
2022/01/09 00:25:45;;;;;;;7.72;4.55;;;;;;;4.83;100.00;98868.84;5346158;27;20042;-85
2022/01/09 00:28:17;;;;;;;6.60;4.20;;;;;;;4.83;100.00;98875.94;5346764;27;20089;-85
2022/01/09 00:30:48;;;;;;;10.68;3.70;;;;;;;4.75;100.00;98892.53;5337720;27;20020;-85
2022/01/09 00:33:21;;;;;;;11.10;4.20;;;;;;;4.69;100.00;98886.06;5342051;27;20024;-85
2022/01/09 00:35:52;;;;;;;18.98;3.90;;;;;;;4.73;100.00;98895.34;5348183;27;20020;-85
2022/01/09 00:38:24;;;;;;;15.98;4.40;;;;;;;4.72;100.00;98906.88;5346133;27;20022;-85
2022/01/09 00:40:55;;;;;;;21.80;5.07;;;;;;;4.74;100.00;98912.03;5345879;27;20437;-85
2022/01/09 00:43:26;;;;;;;20.33;3.92;;;;;;;4.71;100.00;98904.41;5347907;27;20090;-85
2022/01/09 00:45:58;;;;;;;37.08;5.88;;;;;;;4.68;100.00;98918.75;5347544;27;20095;-85
2022/01/09 00:48:29;;;;;;;24.08;4.60;;;;;;;4.64;100.00;98930.56;5347108;27;20146;-85
2022/01/09 00:51:00;;;;;;;36.90;6.35;;;;;;;4.62;100.00;98924.63;5346009;27;20024;-85
2022/01/09 00:53:32;;;;;;;31.08;6.10;;;;;;;4.62;100.00;98937.81;5344920;27;20032;-85
2022/01/09 00:56:03;;;;;;;36.67;5.15;;;;;;;4.51;100.00;98938.88;5344840;27;20371;-85
2022/01/09 00:58:35;;;;;;;45.60;7.30;;;;;;;4.53;100.00;98942.19;5341079;27;20047;-85
2022/01/09 01:01:06;;;;;;;38.30;5.95;;;;;;;4.55;100.00;98960.53;5344188;27;20027;-86
2022/01/09 01:03:37;;;;;;;39.67;6.65;;;;;;;4.46;100.00;98959.63;5343745;27;20410;-86
2022/01/09 01:06:09;;;;;;;44.53;7.43;;;;;;;4.53;100.00;98967.78;5323519;28;20449;-85
2022/01/09 01:08:40;;;;;;;44.72;7.25;;;;;;;4.55;100.00;98971.91;5323673;28;20073;-85
2022/01/09 01:11:12;;;;;;;41.92;6.75;;;;;;;4.64;100.00;98987.84;5321413;28;20109;-85
2022/01/09 01:13:44;;;;;;;36.65;6.43;;;;;;;4.53;100.00;98987.09;5323087;28;20030;-85
2022/01/09 01:16:15;;;;;;;39.45;6.38;;;;;;;4.44;100.00;98990.63;5323673;28;20032;-86
2022/01/09 01:18:46;;;;;;;33.25;4.90;;;;;;;4.48;100.00;99005.19;5305322;28;20047;-86
2022/01/09 01:21:18;;;;;;;35.85;6.10;;;;;;;4.44;100.00;99013.56;5317512;28;20036;-86
2022/01/09 01:23:50;;;;;;;29.70;5.40;;;;;;;4.41;100.00;99004.13;5320251;28;20024;-86
2022/01/09 01:26:22;;;;;;;31.23;4.78;;;;;;;4.44;100.00;99019.66;5315818;28;20551;-86
2022/01/09 01:28:53;;;;;;;30.13;4.13;;;;;;;4.41;100.00;99017.31;5315821;28;20128;-86
2022/01/09 01:31:24;;;;;;;30.95;5.53;;;;;;;4.41;100.00;99029.69;5316751;28;20051;-85
2022/01/09 01:33:56;;;;;;;36.33;4.90;;;;;;;4.39;100.00;99032.47;5320341;28;20669;-86
2022/01/09 01:36:27;;;;;;;32.25;4.97;;;;;;;4.34;100.00;99040.00;5302546;28;20036;-85
2022/01/09 01:38:58;;;;;;;36.13;5.22;;;;;;;4.42;100.00;99053.31;5304597;28;20362;-86
2022/01/09 01:41:30;;;;;;;32.83;5.97;;;;;;;4.49;100.00;99053.56;5323728;28;20107;-86
2022/01/09 01:44:01;;;;;;;35.95;5.85;;;;;;;4.48;100.00;99067.72;5321128;28;20066;-86
2022/01/09 01:46:32;;;;;;;46.38;6.75;;;;;;;4.43;100.00;99072.63;5304452;28;20028;-86
2022/01/09 01:49:05;;;;;;;37.00;6.50;;;;;;;4.42;100.00;99079.72;5323122;28;20032;-86
2022/01/09 01:51:44;;;;;;;37.85;6.20;;;;;;;4.40;100.00;99083.47;5320360;28;20370;-86
2022/01/09 01:54:16;;;;;;;41.67;5.10;;;;;;;4.38;100.00;99093.34;5302377;28;20029;-86
2022/01/09 01:56:47;;;;;;;39.67;6.32;;;;;;;4.44;100.00;99095.41;5321003;28;20082;-86
2022/01/09 01:59:18;;;;;;;56.42;7.40;;;;;;;4.38;100.00;99090.69;5323195;28;20101;-86
2022/01/09 02:01:50;;;;;;;48.42;8.38;;;;;;;4.35;100.00;99099.75;5320012;28;20032;-86
2022/01/09 02:04:21;;;;;;;45.10;7.80;;;;;;;4.50;100.00;99116.75;5325698;27;20047;-86
2022/01/09 02:06:54;;;;;;;48.03;8.32;;;;;;;4.45;100.00;99131.38;5324019;28;20030;-85
2022/01/09 02:09:26;;;;;;;52.97;8.10;;;;;;;4.46;100.00;99141.78;5325723;28;20043;-85
2022/01/09 02:11:57;;;;;;;54.22;7.18;;;;;;;4.50;100.00;99137.88;5327831;28;20032;-85
2022/01/09 02:14:28;;;;;;;44.03;7.90;;;;;;;4.54;100.00;99146.34;5327794;28;20357;-86
2022/01/09 02:17:00;;;;;;;56.05;7.95;;;;;;;4.54;100.00;99139.28;5327723;28;20028;-85
2022/01/09 02:19:31;;;;;;;51.17;8.25;;;;;;;4.52;100.00;99148.28;5325165;28;20127;-85
2022/01/09 02:22:03;;;;;;;43.08;6.70;;;;;;;4.55;100.00;99163.84;5327296;28;20031;-86
2022/01/09 02:24:34;;;;;;;45.30;8.00;;;;;;;4.63;100.00;99155.19;5327543;28;20051;-85
2022/01/09 02:27:07;;;;;;;44.13;8.52;;;;;;;4.57;100.00;99169.81;5308333;28;20418;-86
2022/01/09 02:29:38;;;;;;;52.60;7.53;;;;;;;4.54;100.00;99168.31;5322379;28;20192;-86
2022/01/09 02:32:10;;;;;;;48.65;9.57;;;;;;;4.63;100.00;99171.03;5327042;28;20068;-86
2022/01/09 02:34:41;;;;;;;56.67;8.88;;;;;;;4.61;100.00;99179.16;5327139;28;20028;-86
2022/01/09 02:37:12;;;;;;;34.00;7.07;;;;;;;4.70;100.00;99172.97;5325691;28;20388;-86
2022/01/09 02:39:44;;;;;;;48.30;8.32;;;;;;;4.67;100.00;99180.38;5326934;28;20047;-86
2022/01/09 02:42:19;;;;;;;46.55;6.88;;;;;;;4.58;100.00;99192.63;5324502;28;20484;-87
2022/01/09 02:44:51;;;;;;;47.85;7.45;;;;;;;4.65;100.00;99204.28;5323696;28;20029;-87
2022/01/09 02:47:25;;;;;;;43.97;8.02;;;;;;;4.61;100.00;99195.00;5323936;28;20522;-86
2022/01/09 02:50:03;;;;;;;44.75;6.18;;;;;;;4.74;100.00;99210.50;5323505;28;20028;-85
2022/01/09 02:52:47;;;;;;;37.45;5.72;;;;;;;4.63;100.00;99223.88;5326411;28;20028;-86
2022/01/09 02:55:20;;;;;;;24.75;5.63;;;;;;;4.63;100.00;99231.78;5327136;28;20024;-85
2022/01/09 02:57:54;;;;;;;30.60;5.53;;;;;;;4.58;100.00;99229.59;5307827;28;20115;-85
2022/01/09 03:00:29;;;;;;;34.75;5.45;;;;;;;4.61;100.00;99242.53;5327103;28;20085;-85
2022/01/09 03:03:01;;;;;;;35.72;6.72;;;;;;;4.54;100.00;99251.97;5324565;28;20062;-85
2022/01/09 03:05:32;;;;;;;32.92;5.28;;;;;;;4.49;100.00;99249.78;5326945;27;20102;-86
2022/01/09 03:08:04;;;;;;;32.95;5.75;;;;;;;4.51;100.00;99263.66;5307563;28;20434;-86
2022/01/09 03:10:36;;;;;;;39.50;4.75;;;;;;;4.50;100.00;99267.25;5323922;28;20083;-86
2022/01/09 03:13:07;;;;;;;28.67;5.88;;;;;;;4.54;100.00;99276.59;5326424;28;20464;-86
2022/01/09 03:15:39;;;;;;;24.35;4.57;;;;;;;4.58;100.00;99278.94;5327081;27;20022;-86
2022/01/09 03:18:12;;;;;;;27.13;4.93;;;;;;;4.59;100.00;99284.06;5304434;28;20311;-86
2022/01/09 03:20:43;;;;;;;27.08;3.88;;;;;;;4.56;100.00;99289.66;5326297;28;20172;-86
2022/01/09 03:23:14;;;;;;;19.98;4.63;;;;;;;4.38;100.00;99286.88;5325931;28;20594;-86
2022/01/09 03:25:46;;;;;;;37.05;4.03;;;;;;;4.29;100.00;99288.56;5326203;28;20383;-86
2022/01/09 03:28:17;;;;;;;31.25;4.38;;;;;;;4.32;100.00;99306.75;5326163;28;20032;-86
2022/01/09 03:30:49;;;;;;;21.52;2.45;;;;;;;4.24;100.00;99311.88;5321990;28;20468;-86
2022/01/09 03:33:20;;;;;;;23.90;4.65;;;;;;;4.20;100.00;99315.78;5325865;28;20060;-86
2022/01/09 03:35:51;;;;;;;25.73;3.92;;;;;;;4.20;100.00;99313.16;5324342;28;20400;-86
2022/01/09 03:38:22;;;;;;;18.02;3.30;;;;;;;4.20;100.00;99330.81;5326227;28;20027;-86
2022/01/09 03:40:54;;;;;;;15.20;3.78;;;;;;;4.25;100.00;99331.22;5307623;28;20115;-86
2022/01/09 03:43:25;;;;;;;28.40;4.82;;;;;;;4.19;100.00;99347.59;5326463;28;20028;-84
2022/01/09 03:45:57;;;;;;;26.50;4.25;;;;;;;4.12;100.00;99347.31;5306868;28;20053;-85
2022/01/09 03:48:29;;;;;;;20.88;4.05;;;;;;;4.22;100.00;99358.72;5325681;28;20109;-86
2022/01/09 03:51:02;;;;;;;27.17;3.83;;;;;;;4.14;100.00;99355.94;5325693;28;20451;-86
2022/01/09 03:53:33;;;;;;;22.63;2.90;;;;;;;4.21;100.00;99378.16;5326053;28;20020;-86
2022/01/09 03:56:05;;;;;;;18.05;3.28;;;;;;;4.11;100.00;99367.59;5308106;28;20028;-85
2022/01/09 03:58:36;;;;;;;24.38;3.35;;;;;;;4.18;100.00;99375.81;5328835;28;20035;-86
2022/01/09 04:01:08;;;;;;;29.67;4.07;;;;;;;4.02;100.00;99388.69;5325679;28;20028;-85
2022/01/09 04:03:39;;;;;;;23.88;3.17;;;;;;;4.03;100.00;99390.34;5325564;27;20107;-86
2022/01/09 04:06:11;;;;;;;20.50;6.25;;;;;;;4.12;100.00;99400.09;5323251;28;20044;-86
2022/01/09 04:08:42;;;;;;;27.05;4.22;;;;;;;4.08;100.00;99419.81;5326394;28;20071;-86
2022/01/09 04:11:19;;;;;;;17.45;2.97;;;;;;;3.94;100.00;99411.31;5330301;28;20101;-85
2022/01/09 04:13:50;;;;;;;22.02;4.07;;;;;;;3.96;100.00;99405.88;5334139;28;20020;-86
2022/01/09 04:16:21;;;;;;;16.55;2.72;;;;;;;4.12;100.00;99419.41;5331129;28;20035;-86
2022/01/09 04:18:53;;;;;;;24.83;3.35;;;;;;;3.94;100.00;99426.28;5334313;28;20023;-86
2022/01/09 04:21:25;;;;;;;26.70;4.03;;;;;;;3.92;100.00;99436.16;5329104;28;20028;-86
2022/01/09 04:23:56;;;;;;;22.52;3.30;;;;;;;3.93;100.00;99440.47;5325786;28;20164;-86
2022/01/09 04:26:27;;;;;;;15.98;2.78;;;;;;;3.95;100.00;99444.63;5325245;28;20039;-86
2022/01/09 04:28:58;;;;;;;25.00;3.63;;;;;;;3.79;100.00;99439.03;5307118;28;20024;-86
2022/01/09 04:31:30;;;;;;;21.35;3.70;;;;;;;3.93;100.00;99456.31;5322600;28;20027;-86
2022/01/09 04:34:02;;;;;;;29.33;3.65;;;;;;;3.81;100.00;99454.72;5324200;28;20051;-87
2022/01/09 04:36:33;;;;;;;26.15;3.35;;;;;;;3.82;100.00;99461.66;5306237;28;20082;-86
2022/01/09 04:39:05;;;;;;;18.45;3.15;;;;;;;3.74;100.00;99481.63;5324313;28;20027;-86
2022/01/09 04:41:37;;;;;;;21.23;3.95;;;;;;;3.63;100.00;99470.31;5324555;28;20028;-86
2022/01/09 04:44:08;;;;;;;26.55;3.20;;;;;;;3.65;100.00;99482.41;5325005;28;20026;-86
2022/01/09 04:46:46;;;;;;;21.17;3.30;;;;;;;3.49;100.00;99480.25;5325426;28;20020;-86
2022/01/09 04:49:22;;;;;;;22.17;3.15;;;;;;;3.66;100.00;99496.44;5325175;28;20050;-86
2022/01/09 04:51:54;;;;;;;19.00;3.42;;;;;;;3.70;100.00;99505.75;5324169;28;20472;-86
2022/01/09 04:54:26;;;;;;;14.10;2.70;;;;;;;3.67;100.00;99513.94;5307138;28;20388;-85
2022/01/09 04:56:57;;;;;;;28.10;3.53;;;;;;;3.62;100.00;99510.84;5325763;28;20032;-86
2022/01/09 04:59:29;;;;;;;29.77;3.72;;;;;;;3.54;100.00;99520.25;5324734;28;20373;-86
2022/01/09 05:02:01;;;;;;;17.20;3.40;;;;;;;3.45;100.00;99509.63;5306874;28;20043;-86
2022/01/09 05:04:32;;;;;;;20.80;4.03;;;;;;;3.56;100.00;99535.94;5321156;27;20048;-86
2022/01/09 05:07:04;;;;;;;25.00;3.33;;;;;;;3.56;100.00;99539.41;5345721;27;20050;-86
2022/01/09 05:09:35;;;;;;;21.15;3.08;;;;;;;3.50;100.00;99536.44;5346486;27;20483;-85
2022/01/09 05:12:07;;;;;;;15.45;3.50;;;;;;;3.56;100.00;99559.69;5346497;27;20054;-85
2022/01/09 05:14:38;;;;;;;16.27;3.33;;;;;;;3.65;100.00;99564.16;5341882;27;20054;-86
2022/01/09 05:17:09;;;;;;;25.58;3.90;;;;;;;3.59;100.00;99567.31;5336843;27;20472;-85
2022/01/09 05:19:41;;;;;;;11.88;2.38;;;;;;;3.82;100.00;99569.81;5337732;27;20026;-87
2022/01/09 05:22:12;;;;;;;19.42;3.72;;;;;;;3.72;100.00;99585.59;5343137;27;20073;-86
2022/01/09 05:24:44;;;;;;;21.77;3.10;;;;;;;3.69;100.00;99599.84;5342830;27;20020;-85
2022/01/09 05:27:15;;;;;;;15.15;2.63;;;;;;;3.68;100.00;99600.84;5342309;27;20034;-85
2022/01/09 05:29:47;;;;;;;17.50;3.13;;;;;;;3.63;100.00;99595.13;5342045;27;20040;-85
2022/01/09 05:32:19;;;;;;;21.90;3.47;;;;;;;3.60;100.00;99600.63;5343015;27;20030;-85
2022/01/09 05:34:51;;;;;;;20.33;2.85;;;;;;;3.59;100.00;99606.84;5342884;27;20054;-85
2022/01/09 05:37:22;;;;;;;21.30;5.32;;;;;;;3.69;100.00;99614.84;5336012;27;20028;-85
2022/01/09 05:39:53;;;;;;;17.83;4.07;;;;;;;3.56;100.00;99629.06;5339949;27;20552;-86
2022/01/09 05:42:25;;;;;;;26.58;3.60;;;;;;;3.51;100.00;99630.41;5342370;27;20439;-85
2022/01/09 05:44:56;;;;;;;23.65;5.20;;;;;;;3.56;100.00;99634.34;5344550;27;20035;-86
2022/01/09 05:47:27;;;;;;;21.25;4.10;;;;;;;3.55;100.00;99634.47;5341157;27;20037;-86
2022/01/09 05:49:59;;;;;;;21.90;4.47;;;;;;;3.56;100.00;99639.59;5340894;27;21926;-85
2022/01/09 05:52:30;;;;;;;20.80;5.13;;;;;;;3.61;100.00;99639.22;5340356;27;20023;-85
2022/01/09 05:55:03;;;;;;;27.45;4.82;;;;;;;3.58;100.00;99640.31;5345733;27;20059;-85
2022/01/09 05:57:34;;;;;;;26.45;4.50;;;;;;;3.63;100.00;99628.53;5344465;27;20039;-85
2022/01/09 06:00:06;;;;;;;17.45;3.55;;;;;;;3.65;100.00;99645.91;5345275;27;20019;-86
2022/01/09 06:02:37;;;;;;;26.45;5.32;;;;;;;3.57;100.00;99643.91;5345841;27;20031;-85
2022/01/09 06:05:09;;;;;;;28.48;3.75;;;;;;;3.59;100.00;99647.28;5333184;27;20047;-85
2022/01/09 06:07:43;;;;;;;23.02;4.88;;;;;;;3.64;100.00;99656.59;5306811;28;20135;-85
2022/01/09 06:10:15;;;;;;;21.25;3.28;;;;;;;3.48;100.00;99649.94;5320603;27;20052;-85
2022/01/09 06:12:46;;;;;;;24.17;3.17;;;;;;;3.49;100.00;99649.00;5321346;27;20067;-86
2022/01/09 06:15:18;;;;;;;20.02;3.97;;;;;;;3.59;100.00;99657.81;5324821;27;20031;-86
2022/01/09 06:17:50;;;;;;;22.75;4.43;;;;;;;3.53;100.00;99668.03;5319094;27;20050;-86
2022/01/09 06:20:21;;;;;;;21.65;4.30;;;;;;;3.54;100.00;99669.69;5323679;27;20112;-86
2022/01/09 06:22:52;;;;;;;31.63;4.80;;;;;;;3.57;100.00;99672.91;5304222;27;20032;-85
2022/01/09 06:25:24;;;;;;;26.95;3.58;;;;;;;3.60;100.00;99666.56;5330261;27;20050;-86
2022/01/09 06:27:55;;;;;;;23.98;4.30;;;;;;;3.60;100.00;99682.38;5312809;27;20039;-86
2022/01/09 06:30:26;;;;;;;27.05;4.25;;;;;;;3.60;100.00;99691.13;5323567;27;20052;-86
2022/01/09 06:32:58;;;;;;;18.23;3.50;;;;;;;3.64;100.00;99685.59;5314602;27;20055;-86
2022/01/09 06:35:29;;;;;;;31.13;4.80;;;;;;;3.63;100.00;99687.41;5328552;27;20028;-86
2022/01/09 06:38:01;;;;;;;25.58;4.22;;;;;;;3.62;100.00;99692.81;5304138;28;20019;-86
2022/01/09 06:40:33;;;;;;;24.42;3.17;;;;;;;3.65;100.00;99692.56;5309984;28;20024;-86
2022/01/09 06:43:04;;;;;;;19.00;3.30;;;;;;;3.67;100.00;99690.63;5308499;28;20111;-86
2022/01/09 06:45:36;;;;;;;20.15;3.60;;;;;;;3.69;100.00;99699.25;5304925;28;20379;-86
2022/01/09 06:48:07;;;;;;;15.82;2.72;;;;;;;3.64;100.00;99704.06;5312906;28;20075;-86
2022/01/09 06:50:38;;;;;;;22.58;3.53;;;;;;;3.62;100.00;99700.72;5324983;27;20024;-86
2022/01/09 06:53:10;;;;;;;13.98;3.28;;;;;;;3.71;100.00;99703.41;5322664;27;20024;-86
2022/01/09 06:55:43;;;;;;;18.17;3.03;;;;;;;3.65;100.00;99719.75;5329202;27;20035;-85
2022/01/09 06:58:18;;;;;;;21.65;3.80;;;;;;;3.57;100.00;99711.63;5333831;27;20154;-85
2022/01/09 07:00:51;;;;;;;20.25;3.78;;;;;;;3.73;100.00;99727.03;5324563;28;20021;-85
2022/01/09 07:03:22;;;;;;;23.48;3.17;;;;;;;3.70;100.00;99743.97;5304726;28;20036;-86
2022/01/09 07:05:54;;;;;;;24.77;3.22;;;;;;;3.64;100.00;99728.63;5311199;27;20516;-85
2022/01/09 07:08:27;;;;;;;25.50;3.85;;;;;;;3.61;100.00;99736.78;5329161;27;20031;-86
2022/01/09 07:10:58;;;;;;;14.57;3.28;;;;;;;3.54;100.00;99744.38;5328772;27;20028;-85
2022/01/09 07:13:30;;;;;;;19.25;2.83;;;;;;;3.69;100.00;99752.81;5317351;27;20073;-85
2022/01/09 07:16:02;;;;;;;22.13;3.67;;;;;;;3.55;100.00;99753.94;5326624;27;20032;-85
2022/01/09 07:18:33;;;;;;;18.02;2.90;;;;;;;3.57;100.00;99759.09;5305101;28;20020;-86
2022/01/09 07:21:04;;;;;;;19.98;4.25;;;;;;;3.59;100.00;99759.81;5325547;27;20028;-85
2022/01/09 07:23:36;;;;;;;24.50;3.80;;;;;;;3.78;100.00;99774.97;5321111;28;20024;-85
2022/01/09 07:26:07;;;;;;;12.80;2.75;;;;;;;3.84;100.00;99784.19;5322764;28;20039;-86
2022/01/09 07:28:38;;;;;;;17.20;3.33;;;;;;;3.69;100.00;99773.09;5324124;28;20028;-84
2022/01/09 07:31:10;;;;;;;16.55;3.03;;;;;;;3.58;100.00;99787.97;5307220;28;20028;-85
2022/01/09 07:33:41;;;;;;;16.85;2.80;;;;;;;3.48;100.00;99779.13;5326479;28;20115;-85
2022/01/09 07:36:14;;;;;;;21.02;3.08;;;;;;;3.40;100.00;99782.38;5328357;28;20043;-85
2022/01/09 07:38:45;;;;;;;17.98;2.78;;;;;;;3.28;100.00;99779.88;5326518;28;20486;-84
2022/01/09 07:41:17;;;;;;;19.35;3.47;;;;;;;3.38;100.00;99791.38;5328358;28;20016;-84
2022/01/09 07:43:48;;;;;;;15.68;2.65;;;;;;;3.32;100.00;99792.69;5306832;28;20024;-85
2022/01/09 07:46:19;;;;;;;21.50;3.60;;;;;;;3.31;100.00;99800.72;5324242;28;20035;-85
2022/01/09 07:48:51;;;;;;;17.52;3.47;;;;;;;3.29;100.00;99811.38;5306999;28;20032;-84
2022/01/09 07:51:22;;;;;;;16.73;2.90;;;;;;;3.37;100.00;99818.69;5311201;28;20020;-85
2022/01/09 07:53:53;;;;;;;16.80;2.60;;;;;;;3.22;100.00;99812.81;5329032;28;20035;-85
2022/01/09 07:56:28;;;;;;;15.70;2.40;;;;;;;3.25;100.00;99814.41;5335837;28;20043;-84
2022/01/09 07:58:59;;;;;;;14.70;2.63;;;;;;;3.24;100.00;99829.34;5335713;28;20106;-85
2022/01/09 08:01:30;;;;;;;17.98;2.83;;;;;;;3.28;100.00;99824.69;5326763;28;20103;-86
2022/01/09 08:04:02;;;;;;;12.02;4.07;;;;;;;3.24;100.00;99826.72;5327257;27;20083;-86
2022/01/09 08:06:33;;;;;;;12.05;2.15;;;;;;;3.16;100.00;99832.59;5329049;28;20114;-85
2022/01/09 08:09:04;;;;;;;12.85;3.08;;;;;;;3.17;100.00;99836.91;5328586;28;20028;-86
2022/01/09 08:11:36;;;;;;;11.23;2.17;;;;;;;3.19;100.00;99834.13;5328612;28;20035;-84
2022/01/09 08:14:07;;;;;;;11.00;2.15;;;;;;;3.07;100.00;99841.22;5325947;28;20096;-86
2022/01/09 08:16:38;;;;;;;15.18;4.35;;;;;;;3.10;100.00;99840.13;5327308;27;20094;-85
2022/01/09 08:19:10;;;;;;;12.98;2.63;;;;;;;3.05;100.00;99843.16;5331720;27;20105;-86
2022/01/09 08:21:41;;;;;;;14.85;2.53;;;;;;;3.24;100.00;99866.25;5319541;28;20028;-86
2022/01/09 08:24:14;;;;;;;17.48;4.05;;;;;;;3.25;100.00;99865.31;5323600;27;20187;-86
2022/01/09 08:26:45;;;;;;;15.77;3.10;;;;;;;3.34;100.00;99872.47;5323960;27;20016;-85
2022/01/09 08:29:17;;;;;;;13.32;2.75;;;;;;;3.40;100.00;99881.72;5307128;28;20602;-86
2022/01/09 08:31:48;;;;;;;10.00;2.42;;;;;;;3.43;100.00;99868.28;5325652;27;20047;-86
2022/01/09 08:34:20;;;;;;;16.85;2.90;;;;;;;3.50;100.00;99879.19;5321863;27;20077;-84
2022/01/09 08:36:51;;;;;;;17.08;2.88;;;;;;;3.45;100.00;99871.63;5328291;28;20028;-85
2022/01/09 08:39:22;;;;;;;17.67;2.65;;;;;;;3.49;100.00;99881.00;5309490;27;20437;-85
2022/01/09 08:41:54;;;;;;;15.40;3.30;;;;;;;3.63;100.00;99879.91;5329070;27;20032;-85
2022/01/09 08:44:26;;;;;;;16.77;3.28;;;;;;;3.81;100.00;99885.53;5334973;27;20154;-84
2022/01/09 08:46:57;;;;;;;20.50;3.15;;;;;;;3.68;100.00;99882.19;5330131;27;20027;-84
2022/01/09 08:49:28;;;;;;;12.85;3.08;;;;;;;3.70;100.00;99893.44;5333511;27;20040;-85
2022/01/09 08:52:00;;;;;;;15.35;3.17;;;;;;;3.60;100.00;99881.00;5303059;28;20040;-84
2022/01/09 08:54:31;;;;;;;15.60;4.13;;;;;;;3.66;100.00;99894.66;5316700;28;20032;-85
2022/01/09 08:57:03;;;;;;;16.10;3.03;;;;;;;3.56;100.00;99900.66;5329149;27;20036;-85
2022/01/09 08:59:34;;;;;;;17.80;3.10;;;;;;;3.60;100.00;99910.00;5326715;27;20042;-85
2022/01/09 09:02:06;;;;;;;15.85;2.53;;;;;;;3.60;100.00;99907.34;5322660;27;20085;-85
2022/01/09 09:04:38;;;;;;;11.98;2.53;;;;;;;3.79;100.00;99909.38;5329436;27;20055;-85
2022/01/09 09:07:09;;;;;;;19.10;3.13;;;;;;;3.89;100.00;99917.44;5340752;27;20073;-85
2022/01/09 09:09:40;;;;;;;18.83;3.60;;;;;;;3.95;100.00;99919.56;5333984;27;20055;-85
2022/01/09 09:12:12;;;;;;;14.35;2.97;;;;;;;4.18;100.00;99924.78;5339879;27;20023;-85
2022/01/09 09:14:49;;;;;;;15.32;4.18;;;;;;;4.51;100.00;99929.13;5336443;27;20468;-85
2022/01/09 09:17:20;;;;;;;14.95;3.10;;;;;;;4.67;100.00;99931.34;5341399;27;20023;-85
2022/01/09 09:19:51;;;;;;;21.83;3.83;;;;;;;4.84;100.00;99939.66;5342233;27;20039;-85
2022/01/09 09:22:23;;;;;;;18.52;3.28;;;;;;;4.83;100.00;99930.91;5339912;27;20026;-84
2022/01/09 09:24:56;;;;;;;16.25;4.15;;;;;;;4.89;100.00;99942.78;5324831;27;20035;-84
2022/01/09 09:27:30;;;;;;;16.50;2.65;;;;;;;4.73;100.00;99935.28;5325225;27;20031;-85
2022/01/09 09:30:04;;;;;;;15.77;3.35;;;;;;;4.70;100.00;99946.97;5341932;27;20024;-85
2022/01/09 09:32:35;;;;;;;10.50;2.95;;;;;;;4.65;100.00;99941.22;5339530;27;20067;-85
2022/01/09 09:35:07;;;;;;;18.55;3.25;;;;;;;4.82;100.00;99947.75;5342886;27;31393;-85
2022/01/09 09:37:39;;;;;;;15.07;2.97;;;;;;;4.92;100.00;99950.44;5325005;27;20023;-85
2022/01/09 09:40:11;;;;;;;20.85;3.60;;;;;;;5.00;100.00;99961.22;5338303;27;21668;-85
2022/01/09 09:42:43;;;;;;;18.15;3.72;;;;;;;5.24;100.00;99960.13;5344627;27;20047;-86
2022/01/09 09:45:14;;;;;;;12.38;3.00;;;;;;;5.44;100.00;99961.09;5339098;27;20076;-86
2022/01/09 09:47:46;;;;;;;21.20;3.17;;;;;;;5.28;100.00;99965.03;5320116;27;20471;-84
2022/01/09 09:50:19;;;;;;;17.02;2.83;;;;;;;5.27;100.00;99983.66;5317244;27;20116;-84
2022/01/09 09:52:50;;;;;;;13.85;3.35;;;;;;;5.03;100.00;99990.06;5338457;27;20024;-84
2022/01/09 09:55:21;;;;;;;13.27;2.80;;;;;;;4.95;100.00;99996.94;5335008;27;20441;-84
2022/01/09 09:57:53;;;;;;;15.15;2.33;;;;;;;4.72;100.00;99984.66;5315605;27;20380;-85
2022/01/09 10:00:25;;;;;;;11.00;1.95;;;;;;;4.55;100.00;99979.91;5337357;27;20028;-85
2022/01/09 10:02:59;;;;;;;14.95;2.92;;;;;;;4.62;100.00;99993.47;5334761;27;20571;-85
2022/01/09 10:05:38;;;;;;;16.15;2.50;;;;;;;4.69;100.00;99997.28;5318858;28;20472;-84
2022/01/09 10:08:15;;;;;;;14.35;2.58;;;;;;;4.67;100.00;99999.22;5302897;28;20028;-85
2022/01/09 10:10:46;;;;;;;21.88;3.03;;;;;;;4.78;100.00;99993.03;5323737;28;20401;-85
2022/01/09 10:13:19;;;;;;;20.23;2.83;;;;;;;4.82;100.00;99997.09;5326082;28;20035;-84
2022/01/09 10:15:56;;;;;;;12.90;2.75;;;;;;;5.21;100.00;100005.34;5304626;28;20419;-84
2022/01/09 10:18:38;;;;;;;21.58;3.15;;;;;;;5.52;100.00;99995.66;5323858;28;20498;-85
2022/01/09 10:21:17;;;;;;;17.85;4.03;;;;;;;5.53;100.00;99999.97;5320279;28;20024;-84
2022/01/09 10:24:03;;;;;;;14.77;3.42;;;;;;;5.64;100.00;100004.34;5304236;28;20028;-84
2022/01/09 10:26:39;;;;;;;16.17;4.28;;;;;;;5.72;100.00;100009.00;5308651;28;20078;-85
2022/01/09 10:29:10;;;;;;;13.50;3.75;;;;;;;5.75;100.00;100006.94;5320026;28;20082;-86
2022/01/09 10:31:47;;;;;;;21.17;3.92;;;;;;;5.87;100.00;100000.59;5308759;28;20051;-85
2022/01/09 10:34:18;;;;;;;18.55;5.53;;;;;;;5.75;100.00;99995.50;5327612;28;20429;-86
2022/01/09 10:36:51;;;;;;;12.85;3.20;;;;;;;5.88;100.00;99999.59;5327536;28;20047;-85
2022/01/09 10:39:22;;;;;;;13.35;3.03;;;;;;;5.98;100.00;100007.63;5319499;28;20078;-84
2022/01/09 10:41:59;;;;;;;18.08;3.97;;;;;;;6.08;100.00;100004.16;5327276;28;20036;-84
2022/01/09 10:44:34;;;;;;;15.15;4.10;;;;;;;6.29;100.00;100014.69;5327323;28;20039;-84
2022/01/09 10:47:12;;;;;;;21.50;3.75;;;;;;;6.59;100.00;100016.41;5326926;28;20039;-85
2022/01/09 10:49:51;;;;;;;20.08;3.83;;;;;;;6.80;100.00;100011.88;5327208;28;20078;-85
2022/01/09 10:52:26;;;;;;;16.33;3.90;;;;;;;6.91;100.00;100020.66;5317373;28;20020;-85
2022/01/09 10:55:03;;;;;;;16.00;3.33;;;;;;;6.88;100.00;100010.34;5326477;28;20032;-84
2022/01/09 10:57:39;;;;;;;15.20;3.38;;;;;;;6.73;100.00;100020.50;5324426;28;20050;-85
2022/01/09 11:00:16;;;;;;;15.55;3.60;;;;;;;6.89;100.00;100017.28;5326518;28;20024;-85
2022/01/09 11:02:47;;;;;;;19.17;3.70;;;;;;;6.93;100.00;100026.66;5326421;28;20028;-85
2022/01/09 11:05:18;;;;;;;18.98;3.72;;;;;;;7.33;100.00;100029.16;5334836;27;20050;-85
2022/01/09 11:07:50;;;;;;;15.00;3.17;;;;;;;7.72;100.00;100026.44;5348478;27;20035;-84
2022/01/09 11:10:23;;;;;;;17.38;3.13;;;;;;;7.99;100.00;100024.78;5348164;27;20114;-85
2022/01/09 11:12:58;;;;;;;15.98;3.47;;;;;;;7.46;100.00;100039.47;5346586;27;20034;-85
2022/01/09 11:15:35;;;;;;;11.77;3.15;;;;;;;7.49;100.00;100028.56;5327708;27;20020;-85
2022/01/09 11:18:07;;;;;;;18.55;3.47;;;;;;;7.51;100.00;100039.88;5346541;27;20024;-86
2022/01/09 11:20:39;;;;;;;17.38;3.50;;;;;;;7.77;100.00;100041.94;5347464;27;20076;-86
2022/01/09 11:23:11;;;;;;;16.00;3.38;;;;;;;9.15;100.00;100042.88;5343538;27;21233;-85
2022/01/09 11:25:44;;;;;;;15.55;2.88;;;;;;;10.85;100.00;100045.88;5345944;27;20032;-84
2022/01/09 11:28:27;;;;;;;13.27;3.85;;;;;;;11.21;100.00;100048.25;5347935;27;20054;-85
2022/01/09 11:31:25;;;;;;;12.77;2.78;;;;;;;9.92;100.00;100051.13;5347236;27;20047;-85
2022/01/09 11:34:17;;;;;;;12.57;3.55;;;;;;;9.36;100.00;100043.44;5347983;27;20103;-86
2022/01/09 11:37:13;;;;;;;7.63;2.45;;;;;;;11.40;100.00;100040.91;5352101;27;20015;-86
2022/01/09 11:39:47;;;;;;;13.00;2.78;;;;;;;12.40;100.00;100056.59;5332199;27;20062;-86
2022/01/09 11:42:19;;;;;;;15.57;3.40;;;;;;;12.91;100.00;100050.81;5343421;27;20058;-86
2022/01/09 11:44:55;;;;;;;15.27;3.47;;;;;;;13.87;100.00;100061.97;5325277;28;20095;-86
2022/01/09 11:47:26;;;;;;;9.65;2.70;;;;;;;14.87;100.00;100053.41;5325199;28;20031;-86